createdAt,value
2018-04-06T00:00:47.264Z,18.48
2018-04-06T00:04:48.063Z,20.72
2018-04-06T00:10:48.811Z,20.08
2018-04-06T00:14:49.701Z,21.12
2018-04-06T00:20:50.605Z,18.16
2018-04-06T00:26:51.456Z,18.62
2018-04-06T00:30:52.192Z,19
2018-04-06T00:36:52.965Z,16.24
2018-04-06T00:40:53.765Z,17.58
2018-04-06T00:42:54.474Z,17.27
2018-04-06T00:46:55.216Z,17.71
2018-04-06T00:52:55.964Z,17.65
2018-04-06T00:56:56.711Z,16.05
2018-04-06T01:02:57.492Z,16.79
2018-04-06T01:08:58.334Z,17.9
2018-04-06T01:13:02.245Z,18.05
2018-04-06T01:19:03.053Z,20.71
2018-04-06T01:23:03.699Z,21.72
2018-04-06T01:29:04.422Z,19.6
2018-04-06T01:35:05.204Z,19.89
2018-04-06T01:39:06.032Z,18.6
2018-04-06T01:45:07.099Z,16.36
2018-04-06T01:49:07.907Z,19.46
2018-04-06T01:51:08.531Z,18.84
2018-04-06T01:55:09.401Z,19.67
2018-04-06T02:01:10.116Z,19.65
2018-04-06T02:05:10.858Z,18.06
2018-04-06T02:11:11.614Z,18.79
2018-04-06T02:17:12.431Z,21.03
2018-04-06T02:21:13.087Z,22.42
2018-04-06T02:27:13.844Z,21.87
2018-04-06T02:31:14.708Z,17.38
2018-04-06T02:37:15.538Z,20.12
2018-04-06T02:43:16.409Z,19.67
2018-04-06T02:47:17.182Z,18.17
2018-04-06T02:53:17.940Z,20.31
2018-04-06T02:57:18.706Z,20.72
2018-04-06T02:59:19.448Z,25.49
2018-04-06T03:03:20.201Z,23.6
2018-04-06T03:09:21.131Z,23.48
2018-04-06T03:13:21.945Z,25.51
2018-04-06T03:19:22.762Z,21.25
2018-04-06T03:25:23.591Z,17.98
2018-04-06T03:29:24.494Z,22.66
2018-04-06T03:35:25.182Z,20.39
2018-04-06T03:39:26.026Z,19.37
2018-04-06T03:45:27.404Z,20.26
2018-04-06T03:51:28.177Z,18.89
2018-04-06T03:55:28.962Z,22.1
2018-04-06T04:01:29.768Z,19.63
2018-04-06T04:05:30.551Z,19.03
2018-04-06T04:07:31.228Z,20.12
2018-04-06T04:11:31.959Z,18.48
2018-04-06T04:17:32.686Z,22.38
2018-04-06T04:21:33.485Z,21.13
2018-04-06T04:27:34.162Z,23.13
2018-04-06T04:33:34.936Z,24.04
2018-04-06T04:37:35.652Z,23.74
2018-04-06T04:43:36.358Z,21.25
2018-04-06T04:47:37.176Z,20.59
2018-04-06T04:53:37.884Z,21.08
2018-04-06T04:59:38.689Z,25.51
2018-04-06T05:03:39.527Z,21.53
2018-04-06T05:09:40.208Z,23.38
2018-04-06T05:13:41.065Z,24.45
2018-04-06T05:15:41.921Z,19.55
2018-04-06T05:19:42.687Z,22.55
2018-04-06T05:25:43.487Z,22.15
2018-04-06T05:29:44.228Z,25.86
2018-04-06T05:35:45.029Z,24.9
2018-04-06T05:41:45.848Z,21.83
2018-04-06T05:45:46.517Z,24.33
2018-04-06T05:51:47.293Z,25.38
2018-04-06T05:55:48.206Z,26.34
2018-04-06T05:57:48.903Z,25.89
2018-04-06T06:01:49.723Z,24.14
2018-04-06T06:07:50.639Z,26.35
2018-04-06T06:11:51.777Z,27.54
2018-04-06T06:17:52.762Z,28.9
2018-04-06T06:21:53.912Z,25.67
2018-04-06T06:23:54.777Z,27.56
2018-04-06T06:27:55.552Z,26.73
2018-04-06T06:33:56.391Z,28.56
2018-04-06T06:37:57.271Z,26.31
2018-04-06T06:43:58.401Z,28.73
2018-04-06T06:49:59.556Z,25.43
2018-04-06T06:54:00.499Z,25.14
2018-04-06T07:00:01.553Z,25.14
2018-04-06T07:04:02.444Z,24.88
2018-04-06T07:10:03.207Z,25.5
2018-04-06T07:16:04.132Z,27.59
2018-04-06T07:20:04.909Z,27.33
2018-04-06T07:26:05.810Z,27.29
2018-04-06T07:30:06.578Z,26.42
2018-04-06T07:32:07.300Z,25.6
2018-04-06T07:36:08.060Z,26.68
2018-04-06T07:42:08.994Z,28.79
2018-04-06T07:46:09.805Z,26.89
2018-04-06T07:52:10.667Z,27.68
2018-04-06T07:58:11.540Z,28.11
2018-04-06T08:02:12.397Z,30.84
2018-04-06T08:08:13.225Z,28.81
2018-04-06T08:12:13.902Z,29.64
2018-04-06T08:14:14.975Z,33.28
2018-04-06T08:18:15.716Z,28.69
2018-04-06T08:24:16.553Z,27.62
2018-04-06T08:28:17.433Z,28.65
2018-04-06T08:34:18.244Z,29.76
2018-04-06T08:38:19.117Z,31.04
2018-04-06T08:40:20.012Z,34.37
2018-04-06T08:44:20.725Z,34.55
2018-04-06T08:50:21.534Z,32.33
2018-04-06T08:54:22.355Z,31.67
2018-04-06T09:00:23.398Z,34.06
2018-04-06T09:06:24.190Z,33.64
2018-04-06T09:10:24.904Z,33.36
2018-04-06T09:16:25.723Z,31.48
2018-04-06T09:20:26.428Z,30.31
2018-04-06T09:22:27.147Z,28.88
2018-04-06T09:26:28.017Z,28.24
2018-04-06T09:32:29.087Z,30.19
2018-04-06T09:36:29.830Z,29.53
2018-04-06T09:42:30.607Z,26.83
2018-04-06T09:46:31.471Z,26.08
2018-04-06T09:48:32.225Z,27.93
2018-04-06T09:52:32.932Z,27.44
2018-04-06T09:58:33.849Z,26.13
2018-04-06T10:02:35.636Z,26.93
2018-04-06T10:08:36.479Z,25.91
2018-04-06T10:14:37.231Z,26.73
2018-04-06T10:18:38.274Z,23.94
2018-04-06T10:24:39.079Z,30.99
2018-04-06T10:28:40.050Z,30.31
2018-04-06T10:30:40.816Z,32.03
2018-04-06T10:34:41.659Z,33.01
2018-04-06T10:40:42.393Z,31.9
2018-04-06T10:44:43.217Z,31.6
2018-04-06T10:50:43.974Z,29.33
2018-04-06T10:54:44.662Z,29.3
2018-04-06T10:56:45.818Z,28.68
2018-04-06T11:00:46.618Z,26.51
2018-04-06T11:06:47.292Z,21.8
2018-04-06T11:10:48.118Z,22.33
2018-04-06T11:16:48.841Z,21.39
2018-04-06T11:22:49.645Z,17.96
2018-04-06T11:26:50.403Z,18.19
2018-04-06T11:32:51.361Z,13.38
2018-04-06T11:36:52.157Z,12.54
2018-04-06T11:38:53.001Z,15.14
2018-04-06T11:42:53.741Z,13.46
2018-04-06T11:48:54.437Z,13.56
2018-04-06T11:52:55.207Z,12.15
2018-04-06T11:58:55.999Z,8.58
2018-04-06T12:04:56.763Z,6.42
2018-04-06T12:08:57.754Z,6.55
2018-04-06T12:14:58.653Z,10.7
2018-04-06T12:18:59.765Z,8.81
2018-04-06T12:25:00.742Z,9.98
2018-04-06T12:31:01.516Z,7.17
2018-04-06T12:35:02.411Z,7.56
2018-04-06T12:41:03.200Z,7.34
2018-04-06T12:45:09.502Z,7.81
2018-04-06T12:47:10.284Z,6.48
2018-04-06T12:51:11.039Z,5.24
2018-04-06T12:57:11.762Z,4.32
2018-04-06T13:01:12.605Z,4.77
2018-04-06T13:07:13.348Z,6.46
2018-04-06T13:13:14.126Z,6.77
2018-04-06T13:17:14.903Z,6.27
2018-04-06T13:23:15.981Z,6.28
2018-04-06T13:27:16.726Z,6.2
2018-04-06T13:33:17.521Z,4.49
2018-04-06T13:39:18.260Z,5.25
2018-04-06T13:43:18.972Z,6.04
2018-04-06T13:49:19.755Z,4.24
2018-04-06T13:53:20.510Z,3.69
2018-04-06T13:55:21.154Z,6.35
2018-04-06T13:59:22.014Z,5.34
2018-04-06T14:05:22.707Z,4.77
2018-04-06T14:09:23.386Z,5.24
2018-04-06T14:15:24.286Z,4.3
2018-04-06T14:21:25.082Z,5.03
2018-04-06T14:25:25.826Z,5.11
2018-04-06T14:31:26.600Z,6.68
2018-04-06T14:35:27.281Z,7.33
2018-04-06T14:37:28.093Z,5.13
2018-04-06T14:41:28.808Z,6.32
2018-04-06T14:47:29.570Z,6.05
2018-04-06T14:51:30.429Z,6.46
2018-04-06T14:57:31.123Z,6.7
2018-04-06T15:01:31.989Z,6.59
2018-04-06T15:03:32.785Z,5.66
2018-04-06T15:07:33.507Z,6.13
2018-04-06T15:13:34.329Z,5.77
2018-04-06T15:17:35.278Z,5.45
2018-04-06T15:23:35.949Z,6.88
2018-04-06T15:29:36.776Z,7.43
2018-04-06T15:33:37.455Z,6.92
2018-04-06T15:39:38.354Z,7.39
2018-04-06T15:43:40.225Z,8.93
2018-04-06T15:45:41.144Z,7.26
2018-04-06T15:49:41.957Z,6.3
2018-04-06T15:55:42.709Z,9.23
2018-04-06T15:59:43.529Z,7.09
2018-04-06T16:05:44.256Z,6.38
2018-04-06T16:09:45.070Z,6.17
2018-04-06T16:11:45.864Z,7.31
2018-04-06T16:15:46.750Z,9.99
2018-04-06T16:21:47.478Z,7.32
2018-04-06T16:25:48.226Z,6.66
2018-04-06T16:31:49.014Z,6.25
2018-04-06T16:37:49.720Z,6.94
2018-04-06T16:41:50.493Z,7.04
2018-04-06T16:47:51.326Z,7.91
2018-04-06T16:51:52.041Z,5.58
2018-04-06T16:53:52.745Z,6.22
2018-04-06T16:57:53.472Z,6.16
2018-04-06T17:03:54.426Z,7.26
2018-04-06T17:07:55.100Z,7.45
2018-04-06T17:13:55.980Z,8.03
2018-04-06T17:19:56.745Z,9.67
2018-04-06T17:23:57.594Z,8.55
2018-04-06T17:29:58.440Z,8
2018-04-06T17:33:59.211Z,9.77
2018-04-06T17:39:59.964Z,10.28
2018-04-06T17:46:00.856Z,10.41
2018-04-06T17:50:01.598Z,10.03
2018-04-06T17:56:02.376Z,8.41
2018-04-06T18:00:03.247Z,8.88
2018-04-06T18:02:03.977Z,9.26
2018-04-06T18:06:04.779Z,10.49
2018-04-06T18:12:05.720Z,10.54
2018-04-06T18:16:06.618Z,10.72
2018-04-06T18:22:07.391Z,11.56
2018-04-06T18:28:08.232Z,10.28
2018-04-06T18:32:08.970Z,9.54
2018-04-06T18:38:09.771Z,13.01
2018-04-06T18:42:10.655Z,11.09
2018-04-06T18:44:11.317Z,10.55
2018-04-06T18:48:12.438Z,10.46
2018-04-06T18:54:13.236Z,12.64
2018-04-06T18:58:14.041Z,11.84
2018-04-06T19:04:14.809Z,14.53
2018-04-06T19:08:15.567Z,16.41
2018-04-06T19:10:16.397Z,14.1
2018-04-06T19:14:17.071Z,13.82
2018-04-06T19:20:17.799Z,16.13
2018-04-06T19:24:18.640Z,16.22
2018-04-06T19:30:19.897Z,16.94
2018-04-06T19:36:20.653Z,17.97
2018-04-06T19:40:21.455Z,16.43
2018-04-06T19:46:22.218Z,13.25
2018-04-06T19:50:23.017Z,11.83
2018-04-06T19:52:23.683Z,11.13
2018-04-06T19:56:24.521Z,9.88
2018-04-06T20:02:25.303Z,9.68
2018-04-06T20:06:26.123Z,8.5
2018-04-06T20:12:27.014Z,8.43
2018-04-06T20:18:28.013Z,9.25
2018-04-06T20:22:28.740Z,10.34
2018-04-06T20:28:29.474Z,15.7
2018-04-06T20:32:30.332Z,16.22
2018-04-06T20:38:31.040Z,17.17
2018-04-06T20:44:31.963Z,18.41
2018-04-06T20:48:32.839Z,17.37
2018-04-06T20:59:34.876Z,14.3
2018-04-06T21:05:35.624Z,9.09
2018-04-06T21:09:36.442Z,7.33
2018-04-06T21:15:37.257Z,6.27
2018-04-06T21:19:38.067Z,5.95
2018-04-06T21:21:38.811Z,5.85
2018-04-06T21:25:39.598Z,5
2018-04-06T21:31:40.605Z,13.35
2018-04-06T21:35:41.424Z,14.39
2018-04-06T21:41:42.223Z,20.59
2018-04-06T21:45:43.021Z,16.84
2018-04-06T21:47:43.738Z,19.25
2018-04-06T21:51:44.558Z,19.56
2018-04-06T21:57:45.318Z,11.29
2018-04-06T22:01:46.273Z,10.87
2018-04-06T22:07:47.051Z,8.55
2018-04-06T22:13:47.972Z,18.27
2018-04-06T22:17:48.826Z,17.73
2018-04-06T22:23:49.621Z,18.32
2018-04-06T22:27:50.516Z,17.81
2018-04-06T22:29:51.534Z,18.19
2018-04-06T22:33:52.268Z,18.78
2018-04-06T22:39:53.066Z,20.65
2018-04-06T22:43:53.988Z,18.8
2018-04-06T22:49:54.651Z,17.42
2018-04-06T22:55:55.440Z,18.8
2018-04-06T22:59:56.262Z,18.45
2018-04-06T23:05:57.039Z,22.46
2018-04-06T23:09:57.877Z,21.86
2018-04-06T23:11:58.674Z,28.5
2018-04-06T23:15:59.421Z,29.71
2018-04-06T23:22:00.224Z,31.85
2018-04-06T23:26:00.952Z,30.49
2018-04-06T23:32:01.733Z,28.75
2018-04-06T23:36:02.558Z,26.38
2018-04-06T23:38:03.357Z,23.86
2018-04-06T23:42:04.139Z,24.46
2018-04-06T23:48:04.858Z,21.1
2018-04-06T23:52:05.554Z,20.06
2018-04-06T23:58:06.351Z,18.78
